LFMI

Istres Le Tubé / Istres Air Base (BA 125) Airport

Istres/Le Tubé, France
METAR LFMI 130330Z AUTO 03004KT 7000 NSC 00/00 Q1012 TEMPO 4000 RA
Observed Flight Rules
Dec-13 @ 03:30 UTC (35 minutes ago) Marginal Visual Flight Rules
Wind Visibility Clouds
30° at 4 knots 7,001 meters
  • Clear skies
Temperatures Readings
Current 0°C / 32°F
Dewpoint 0°C / 32°F
Humidity 100%
Altimeter 29.88" Hg
Pressure 1012 hPa
Elevation 24
METAR LFMI 130330Z AUTO 03004KT 7000 NSC 00/00 Q1012 TEMPO 4000 RA
Observed Flight Rules
Dec-13 @ 03:30 UTC
(35 minutes ago)
MVFR
Wind Visibility
30° at 4 knots 7,001 meters
Clouds
  • Clear skies
Temperature Dewpoint
0°C / 32°F 0°C / 32°F
Humidity Altimeter Pressure
100% 29.88" Hg 1012 hPa